sensor_id;sensor_type;location;lat;lon;timestamp;P1;durP1;ratioP1;P2;durP2;ratioP2
2408;SDS011;8463;48.094;7.970;2023-04-03T00:01:13;2.10;;;1.90;;
2408;SDS011;8463;48.094;7.970;2023-04-03T00:03:39;4.10;;;1.90;;
2408;SDS011;8463;48.094;7.970;2023-04-03T00:06:06;2.87;;;2.10;;
2408;SDS011;8463;48.094;7.970;2023-04-03T00:08:33;2.07;;;1.80;;
2408;SDS011;8463;48.094;7.970;2023-04-03T00:11:00;1.70;;;1.50;;
2408;SDS011;8463;48.094;7.970;2023-04-03T00:13:25;2.47;;;1.90;;
2408;SDS011;8463;48.094;7.970;2023-04-03T00:15:51;2.00;;;1.90;;
2408;SDS011;8463;48.094;7.970;2023-04-03T00:18:19;1.93;;;1.70;;
2408;SDS011;8463;48.094;7.970;2023-04-03T00:20:45;1.40;;;1.23;;
2408;SDS011;8463;48.094;7.970;2023-04-03T00:23:11;2.17;;;1.60;;
2408;SDS011;8463;48.094;7.970;2023-04-03T00:25:37;2.37;;;1.90;;
2408;SDS011;8463;48.094;7.970;2023-04-03T00:28:03;2.83;;;2.03;;
2408;SDS011;8463;48.094;7.970;2023-04-03T00:30:29;1.87;;;1.60;;
2408;SDS011;8463;48.094;7.970;2023-04-03T00:32:55;1.80;;;1.63;;
2408;SDS011;8463;48.094;7.970;2023-04-03T00:35:21;2.77;;;1.80;;
2408;SDS011;8463;48.094;7.970;2023-04-03T00:37:51;2.07;;;1.80;;
2408;SDS011;8463;48.094;7.970;2023-04-03T00:40:18;2.00;;;1.80;;
2408;SDS011;8463;48.094;7.970;2023-04-03T00:42:45;2.17;;;1.70;;
2408;SDS011;8463;48.094;7.970;2023-04-03T00:47:49;2.17;;;1.57;;
2408;SDS011;8463;48.094;7.970;2023-04-03T00:50:16;1.70;;;1.20;;
2408;SDS011;8463;48.094;7.970;2023-04-03T00:52:42;2.10;;;1.90;;
2408;SDS011;8463;48.094;7.970;2023-04-03T00:55:11;2.07;;;1.87;;
2408;SDS011;8463;48.094;7.970;2023-04-03T00:57:39;1.80;;;1.53;;
2408;SDS011;8463;48.094;7.970;2023-04-03T01:00:07;1.73;;;1.53;;
2408;SDS011;8463;48.094;7.970;2023-04-03T01:02:36;4.60;;;1.90;;
2408;SDS011;8463;48.094;7.970;2023-04-03T01:05:02;2.37;;;1.80;;
2408;SDS011;8463;48.094;7.970;2023-04-03T01:07:31;1.80;;;1.70;;
2408;SDS011;8463;48.094;7.970;2023-04-03T01:09:59;2.23;;;2.03;;
2408;SDS011;8463;48.094;7.970;2023-04-03T01:12:34;1.93;;;1.70;;
2408;SDS011;8463;48.094;7.970;2023-04-03T01:15:06;1.97;;;1.73;;
2408;SDS011;8463;48.094;7.970;2023-04-03T01:25:34;2.77;;;2.17;;
2408;SDS011;8463;48.094;7.970;2023-04-03T01:28:03;1.80;;;1.60;;
2408;SDS011;8463;48.094;7.970;2023-04-03T01:30:34;2.30;;;2.10;;
2408;SDS011;8463;48.094;7.970;2023-04-03T01:33:06;2.20;;;1.60;;
2408;SDS011;8463;48.094;7.970;2023-04-03T01:35:31;2.17;;;1.97;;
2408;SDS011;8463;48.094;7.970;2023-04-03T01:37:57;2.27;;;2.07;;
2408;SDS011;8463;48.094;7.970;2023-04-03T01:40:23;2.70;;;2.50;;
2408;SDS011;8463;48.094;7.970;2023-04-03T01:42:49;2.47;;;2.27;;
2408;SDS011;8463;48.094;7.970;2023-04-03T01:45:14;3.10;;;2.10;;
2408;SDS011;8463;48.094;7.970;2023-04-03T01:47:40;2.33;;;2.13;;
2408;SDS011;8463;48.094;7.970;2023-04-03T01:50:06;2.70;;;2.10;;
2408;SDS011;8463;48.094;7.970;2023-04-03T01:52:31;2.40;;;2.20;;
2408;SDS011;8463;48.094;7.970;2023-04-03T01:54:57;2.90;;;2.27;;
2408;SDS011;8463;48.094;7.970;2023-04-03T01:57:22;2.77;;;2.10;;
2408;SDS011;8463;48.094;7.970;2023-04-03T01:59:48;2.10;;;1.83;;
2408;SDS011;8463;48.094;7.970;2023-04-03T02:02:14;2.23;;;2.00;;
2408;SDS011;8463;48.094;7.970;2023-04-03T02:04:40;2.27;;;2.07;;
2408;SDS011;8463;48.094;7.970;2023-04-03T02:07:06;2.10;;;1.90;;
2408;SDS011;8463;48.094;7.970;2023-04-03T02:09:31;1.90;;;1.60;;
2408;SDS011;8463;48.094;7.970;2023-04-03T02:11:57;2.63;;;2.20;;
2408;SDS011;8463;48.094;7.970;2023-04-03T02:14:23;2.03;;;1.70;;
2408;SDS011;8463;48.094;7.970;2023-04-03T02:16:49;2.37;;;2.13;;
2408;SDS011;8463;48.094;7.970;2023-04-03T02:19:15;5.00;;;2.23;;
2408;SDS011;8463;48.094;7.970;2023-04-03T02:21:40;1.53;;;1.37;;
2408;SDS011;8463;48.094;7.970;2023-04-03T02:24:06;5.90;;;2.27;;
2408;SDS011;8463;48.094;7.970;2023-04-03T02:26:35;2.30;;;2.07;;
2408;SDS011;8463;48.094;7.970;2023-04-03T02:29:00;2.47;;;2.30;;
2408;SDS011;8463;48.094;7.970;2023-04-03T02:31:26;2.77;;;1.97;;
2408;SDS011;8463;48.094;7.970;2023-04-03T02:33:51;3.80;;;2.10;;
2408;SDS011;8463;48.094;7.970;2023-04-03T02:36:17;3.03;;;2.10;;
2408;SDS011;8463;48.094;7.970;2023-04-03T02:38:43;3.00;;;2.27;;
2408;SDS011;8463;48.094;7.970;2023-04-03T02:41:09;2.37;;;2.17;;
2408;SDS011;8463;48.094;7.970;2023-04-03T02:43:36;2.10;;;1.90;;
2408;SDS011;8463;48.094;7.970;2023-04-03T02:46:02;2.23;;;2.03;;
2408;SDS011;8463;48.094;7.970;2023-04-03T02:48:28;1.90;;;1.67;;
2408;SDS011;8463;48.094;7.970;2023-04-03T02:50:54;1.87;;;1.77;;
2408;SDS011;8463;48.094;7.970;2023-04-03T02:53:20;2.50;;;2.10;;
2408;SDS011;8463;48.094;7.970;2023-04-03T02:55:46;3.77;;;2.50;;
2408;SDS011;8463;48.094;7.970;2023-04-03T02:58:12;1.90;;;1.80;;
2408;SDS011;8463;48.094;7.970;2023-04-03T03:00:38;2.67;;;2.47;;
2408;SDS011;8463;48.094;7.970;2023-04-03T03:03:03;3.60;;;2.60;;
2408;SDS011;8463;48.094;7.970;2023-04-03T03:05:29;2.80;;;2.20;;
2408;SDS011;8463;48.094;7.970;2023-04-03T03:07:55;2.17;;;1.97;;
2408;SDS011;8463;48.094;7.970;2023-04-03T03:10:21;2.23;;;1.90;;
2408;SDS011;8463;48.094;7.970;2023-04-03T03:12:47;2.43;;;2.03;;
2408;SDS011;8463;48.094;7.970;2023-04-03T03:15:13;2.10;;;1.87;;
2408;SDS011;8463;48.094;7.970;2023-04-03T03:17:42;2.37;;;1.97;;
2408;SDS011;8463;48.094;7.970;2023-04-03T03:20:08;1.80;;;1.60;;
2408;SDS011;8463;48.094;7.970;2023-04-03T03:22:35;1.93;;;1.80;;
2408;SDS011;8463;48.094;7.970;2023-04-03T03:25:01;2.07;;;1.87;;
2408;SDS011;8463;48.094;7.970;2023-04-03T03:27:27;2.80;;;2.30;;
2408;SDS011;8463;48.094;7.970;2023-04-03T03:29:53;1.90;;;1.73;;
2408;SDS011;8463;48.094;7.970;2023-04-03T03:32:19;2.07;;;1.83;;
2408;SDS011;8463;48.094;7.970;2023-04-03T03:34:45;5.97;;;1.90;;
2408;SDS011;8463;48.094;7.970;2023-04-03T03:37:11;1.70;;;1.60;;
2408;SDS011;8463;48.094;7.970;2023-04-03T03:39:37;1.77;;;1.67;;
2408;SDS011;8463;48.094;7.970;2023-04-03T03:42:02;1.80;;;1.70;;
2408;SDS011;8463;48.094;7.970;2023-04-03T03:44:28;2.57;;;1.70;;
2408;SDS011;8463;48.094;7.970;2023-04-03T03:46:54;2.23;;;1.87;;
2408;SDS011;8463;48.094;7.970;2023-04-03T03:49:21;2.77;;;2.40;;
2408;SDS011;8463;48.094;7.970;2023-04-03T03:51:46;3.40;;;2.17;;
2408;SDS011;8463;48.094;7.970;2023-04-03T03:54:12;2.53;;;2.23;;
2408;SDS011;8463;48.094;7.970;2023-04-03T03:56:38;3.37;;;2.23;;
2408;SDS011;8463;48.094;7.970;2023-04-03T03:59:04;3.40;;;3.10;;
2408;SDS011;8463;48.094;7.970;2023-04-03T04:01:30;2.50;;;2.10;;
2408;SDS011;8463;48.094;7.970;2023-04-03T04:03:56;2.33;;;2.13;;
2408;SDS011;8463;48.094;7.970;2023-04-03T04:06:22;2.93;;;2.50;;
2408;SDS011;8463;48.094;7.970;2023-04-03T04:08:48;3.00;;;2.50;;
2408;SDS011;8463;48.094;7.970;2023-04-03T04:11:13;2.70;;;2.50;;
2408;SDS011;8463;48.094;7.970;2023-04-03T04:13:39;2.53;;;2.33;;
2408;SDS011;8463;48.094;7.970;2023-04-03T04:16:05;2.10;;;2.00;;
2408;SDS011;8463;48.094;7.970;2023-04-03T04:18:32;2.37;;;2.13;;
2408;SDS011;8463;48.094;7.970;2023-04-03T04:20:57;4.00;;;2.67;;
2408;SDS011;8463;48.094;7.970;2023-04-03T04:23:23;3.30;;;2.77;;
2408;SDS011;8463;48.094;7.970;2023-04-03T04:25:49;3.77;;;2.97;;
2408;SDS011;8463;48.094;7.970;2023-04-03T04:28:15;2.60;;;2.40;;
2408;SDS011;8463;48.094;7.970;2023-04-03T04:30:41;2.70;;;2.50;;
2408;SDS011;8463;48.094;7.970;2023-04-03T04:33:07;3.57;;;2.60;;
2408;SDS011;8463;48.094;7.970;2023-04-03T04:35:33;2.60;;;2.37;;
2408;SDS011;8463;48.094;7.970;2023-04-03T04:37:59;3.30;;;2.67;;
2408;SDS011;8463;48.094;7.970;2023-04-03T04:40:25;3.03;;;2.83;;
2408;SDS011;8463;48.094;7.970;2023-04-03T04:42:51;4.63;;;2.90;;
2408;SDS011;8463;48.094;7.970;2023-04-03T04:45:17;2.53;;;2.33;;
2408;SDS011;8463;48.094;7.970;2023-04-03T04:47:43;2.47;;;2.20;;
2408;SDS011;8463;48.094;7.970;2023-04-03T04:50:11;3.10;;;2.90;;
2408;SDS011;8463;48.094;7.970;2023-04-03T04:52:37;3.07;;;2.70;;
2408;SDS011;8463;48.094;7.970;2023-04-03T04:55:04;4.00;;;2.70;;
2408;SDS011;8463;48.094;7.970;2023-04-03T04:57:30;2.90;;;2.70;;
2408;SDS011;8463;48.094;7.970;2023-04-03T04:59:58;3.07;;;2.70;;
2408;SDS011;8463;48.094;7.970;2023-04-03T05:02:23;3.27;;;2.97;;
2408;SDS011;8463;48.094;7.970;2023-04-03T05:04:49;4.63;;;2.83;;
2408;SDS011;8463;48.094;7.970;2023-04-03T05:07:16;2.50;;;2.30;;
2408;SDS011;8463;48.094;7.970;2023-04-03T05:09:42;3.43;;;3.13;;
2408;SDS011;8463;48.094;7.970;2023-04-03T05:12:07;3.67;;;2.90;;
2408;SDS011;8463;48.094;7.970;2023-04-03T05:14:33;3.37;;;3.07;;
2408;SDS011;8463;48.094;7.970;2023-04-03T05:16:58;3.90;;;2.77;;
2408;SDS011;8463;48.094;7.970;2023-04-03T05:19:24;3.67;;;2.60;;
2408;SDS011;8463;48.094;7.970;2023-04-03T05:21:50;3.13;;;2.87;;
2408;SDS011;8463;48.094;7.970;2023-04-03T05:24:15;3.77;;;3.40;;
2408;SDS011;8463;48.094;7.970;2023-04-03T05:26:41;4.20;;;3.53;;
2408;SDS011;8463;48.094;7.970;2023-04-03T05:29:07;4.00;;;3.20;;
2408;SDS011;8463;48.094;7.970;2023-04-03T05:31:33;3.83;;;3.20;;
2408;SDS011;8463;48.094;7.970;2023-04-03T05:33:59;4.00;;;3.13;;
2408;SDS011;8463;48.094;7.970;2023-04-03T05:36:25;3.30;;;3.00;;
2408;SDS011;8463;48.094;7.970;2023-04-03T05:38:53;3.80;;;3.50;;
2408;SDS011;8463;48.094;7.970;2023-04-03T05:41:21;3.50;;;3.20;;
2408;SDS011;8463;48.094;7.970;2023-04-03T05:43:47;3.57;;;3.17;;
2408;SDS011;8463;48.094;7.970;2023-04-03T05:46:13;4.40;;;3.40;;
2408;SDS011;8463;48.094;7.970;2023-04-03T05:48:41;3.97;;;3.57;;
2408;SDS011;8463;48.094;7.970;2023-04-03T05:51:09;4.73;;;3.63;;
2408;SDS011;8463;48.094;7.970;2023-04-03T05:53:40;4.77;;;4.17;;
2408;SDS011;8463;48.094;7.970;2023-04-03T05:56:07;3.87;;;3.57;;
2408;SDS011;8463;48.094;7.970;2023-04-03T05:58:33;4.73;;;4.20;;
2408;SDS011;8463;48.094;7.970;2023-04-03T06:00:59;5.00;;;3.93;;
2408;SDS011;8463;48.094;7.970;2023-04-03T06:03:24;3.63;;;3.33;;
2408;SDS011;8463;48.094;7.970;2023-04-03T06:05:51;3.83;;;3.23;;
2408;SDS011;8463;48.094;7.970;2023-04-03T06:08:17;4.17;;;3.50;;
2408;SDS011;8463;48.094;7.970;2023-04-03T06:10:42;3.90;;;3.43;;
2408;SDS011;8463;48.094;7.970;2023-04-03T06:13:08;5.53;;;3.70;;
2408;SDS011;8463;48.094;7.970;2023-04-03T06:15:34;3.80;;;3.43;;
2408;SDS011;8463;48.094;7.970;2023-04-03T06:17:59;4.30;;;3.90;;
2408;SDS011;8463;48.094;7.970;2023-04-03T06:20:26;4.43;;;4.03;;
2408;SDS011;8463;48.094;7.970;2023-04-03T06:22:51;4.10;;;3.80;;
2408;SDS011;8463;48.094;7.970;2023-04-03T06:25:17;3.37;;;3.07;;
2408;SDS011;8463;48.094;7.970;2023-04-03T06:27:44;4.73;;;3.67;;
2408;SDS011;8463;48.094;7.970;2023-04-03T06:30:10;3.93;;;2.93;;
2408;SDS011;8463;48.094;7.970;2023-04-03T06:32:36;3.60;;;3.27;;
2408;SDS011;8463;48.094;7.970;2023-04-03T06:35:03;3.47;;;2.93;;
2408;SDS011;8463;48.094;7.970;2023-04-03T06:37:29;4.37;;;3.33;;
2408;SDS011;8463;48.094;7.970;2023-04-03T06:39:55;3.13;;;2.83;;
2408;SDS011;8463;48.094;7.970;2023-04-03T06:42:21;3.83;;;3.37;;
2408;SDS011;8463;48.094;7.970;2023-04-03T06:44:47;3.23;;;2.93;;
2408;SDS011;8463;48.094;7.970;2023-04-03T06:47:14;2.63;;;2.40;;
2408;SDS011;8463;48.094;7.970;2023-04-03T06:49:41;6.97;;;4.13;;
2408;SDS011;8463;48.094;7.970;2023-04-03T06:52:07;3.27;;;3.00;;
2408;SDS011;8463;48.094;7.970;2023-04-03T06:54:34;3.00;;;2.43;;
2408;SDS011;8463;48.094;7.970;2023-04-03T06:57:00;3.33;;;2.33;;
2408;SDS011;8463;48.094;7.970;2023-04-03T06:59:26;2.93;;;1.90;;
2408;SDS011;8463;48.094;7.970;2023-04-03T07:01:52;3.40;;;2.77;;
2408;SDS011;8463;48.094;7.970;2023-04-03T07:04:17;3.23;;;2.87;;
2408;SDS011;8463;48.094;7.970;2023-04-03T07:06:45;2.33;;;2.13;;
2408;SDS011;8463;48.094;7.970;2023-04-03T07:09:11;2.93;;;2.60;;
2408;SDS011;8463;48.094;7.970;2023-04-03T07:11:38;2.30;;;2.10;;
2408;SDS011;8463;48.094;7.970;2023-04-03T07:14:04;2.50;;;2.00;;
2408;SDS011;8463;48.094;7.970;2023-04-03T07:16:32;5.40;;;2.13;;
2408;SDS011;8463;48.094;7.970;2023-04-03T07:18:58;2.20;;;1.83;;
2408;SDS011;8463;48.094;7.970;2023-04-03T07:21:24;2.20;;;1.93;;
2408;SDS011;8463;48.094;7.970;2023-04-03T07:23:50;2.43;;;2.20;;
2408;SDS011;8463;48.094;7.970;2023-04-03T07:26:16;2.50;;;2.30;;
2408;SDS011;8463;48.094;7.970;2023-04-03T07:28:41;2.13;;;1.60;;
2408;SDS011;8463;48.094;7.970;2023-04-03T07:31:11;2.10;;;1.77;;
2408;SDS011;8463;48.094;7.970;2023-04-03T07:33:39;2.40;;;2.20;;
2408;SDS011;8463;48.094;7.970;2023-04-03T07:36:07;2.33;;;2.10;;
2408;SDS011;8463;48.094;7.970;2023-04-03T07:38:34;2.53;;;2.33;;
2408;SDS011;8463;48.094;7.970;2023-04-03T07:41:00;2.70;;;2.23;;
2408;SDS011;8463;48.094;7.970;2023-04-03T07:43:26;2.33;;;2.13;;
2408;SDS011;8463;48.094;7.970;2023-04-03T07:45:51;2.40;;;2.20;;
2408;SDS011;8463;48.094;7.970;2023-04-03T07:48:19;2.73;;;2.10;;
2408;SDS011;8463;48.094;7.970;2023-04-03T07:50:47;4.30;;;3.20;;
2408;SDS011;8463;48.094;7.970;2023-04-03T07:53:13;2.93;;;1.73;;
2408;SDS011;8463;48.094;7.970;2023-04-03T07:55:39;2.67;;;2.30;;
2408;SDS011;8463;48.094;7.970;2023-04-03T07:58:12;2.93;;;2.67;;
2408;SDS011;8463;48.094;7.970;2023-04-03T08:00:40;3.07;;;2.77;;
2408;SDS011;8463;48.094;7.970;2023-04-03T08:03:06;3.13;;;2.93;;
2408;SDS011;8463;48.094;7.970;2023-04-03T08:05:37;2.60;;;2.30;;
2408;SDS011;8463;48.094;7.970;2023-04-03T08:08:05;2.80;;;2.60;;
2408;SDS011;8463;48.094;7.970;2023-04-03T08:10:31;2.97;;;2.60;;
2408;SDS011;8463;48.094;7.970;2023-04-03T08:12:58;3.07;;;2.80;;
2408;SDS011;8463;48.094;7.970;2023-04-03T08:15:23;3.23;;;2.97;;
2408;SDS011;8463;48.094;7.970;2023-04-03T08:17:49;3.20;;;2.70;;
2408;SDS011;8463;48.094;7.970;2023-04-03T08:20:15;6.00;;;5.03;;
2408;SDS011;8463;48.094;7.970;2023-04-03T08:22:42;5.27;;;4.70;;
2408;SDS011;8463;48.094;7.970;2023-04-03T08:25:08;4.10;;;3.70;;
2408;SDS011;8463;48.094;7.970;2023-04-03T08:27:34;4.83;;;3.87;;
2408;SDS011;8463;48.094;7.970;2023-04-03T08:30:00;4.93;;;3.80;;
2408;SDS011;8463;48.094;7.970;2023-04-03T08:32:26;4.00;;;3.50;;
2408;SDS011;8463;48.094;7.970;2023-04-03T08:34:52;7.50;;;6.17;;
2408;SDS011;8463;48.094;7.970;2023-04-03T08:37:18;3.53;;;3.23;;
2408;SDS011;8463;48.094;7.970;2023-04-03T08:39:44;7.37;;;4.00;;
2408;SDS011;8463;48.094;7.970;2023-04-03T08:42:53;4.73;;;4.00;;
2408;SDS011;8463;48.094;7.970;2023-04-03T08:45:00;5.13;;;3.30;;
2408;SDS011;8463;48.094;7.970;2023-04-03T08:50:11;11.10;;;6.73;;
2408;SDS011;8463;48.094;7.970;2023-04-03T08:52:52;4.60;;;4.00;;
2408;SDS011;8463;48.094;7.970;2023-04-03T09:00:57;3.57;;;2.73;;
2408;SDS011;8463;48.094;7.970;2023-04-03T09:03:29;3.53;;;3.23;;
2408;SDS011;8463;48.094;7.970;2023-04-03T09:11:16;4.10;;;3.77;;
2408;SDS011;8463;48.094;7.970;2023-04-03T09:13:57;3.17;;;2.87;;
2408;SDS011;8463;48.094;7.970;2023-04-03T09:22:11;2.00;;;1.80;;
2408;SDS011;8463;48.094;7.970;2023-04-03T09:24:45;4.47;;;3.00;;
2408;SDS011;8463;48.094;7.970;2023-04-03T09:27:15;2.70;;;1.70;;
2408;SDS011;8463;48.094;7.970;2023-04-03T09:29:41;2.13;;;2.03;;
2408;SDS011;8463;48.094;7.970;2023-04-03T09:32:44;1.93;;;1.77;;
2408;SDS011;8463;48.094;7.970;2023-04-03T09:35:03;1.80;;;1.67;;
2408;SDS011;8463;48.094;7.970;2023-04-03T09:37:44;2.13;;;1.93;;
2408;SDS011;8463;48.094;7.970;2023-04-03T09:42:50;3.70;;;1.80;;
2408;SDS011;8463;48.094;7.970;2023-04-03T09:45:28;2.87;;;1.83;;
2408;SDS011;8463;48.094;7.970;2023-04-03T09:50:34;2.10;;;1.90;;
2408;SDS011;8463;48.094;7.970;2023-04-03T09:53:29;1.93;;;1.80;;
2408;SDS011;8463;48.094;7.970;2023-04-03T09:55:59;1.53;;;1.40;;
2408;SDS011;8463;48.094;7.970;2023-04-03T10:00:59;1.73;;;1.60;;
2408;SDS011;8463;48.094;7.970;2023-04-03T10:03:30;2.10;;;1.90;;
2408;SDS011;8463;48.094;7.970;2023-04-03T10:06:04;2.00;;;1.70;;
2408;SDS011;8463;48.094;7.970;2023-04-03T10:09:02;1.80;;;1.70;;
2408;SDS011;8463;48.094;7.970;2023-04-03T10:27:55;1.47;;;1.37;;
2408;SDS011;8463;48.094;7.970;2023-04-03T10:58:18;2.30;;;1.57;;
2408;SDS011;8463;48.094;7.970;2023-04-03T11:00:49;1.90;;;1.80;;
2408;SDS011;8463;48.094;7.970;2023-04-03T11:03:32;2.60;;;2.33;;
2408;SDS011;8463;48.094;7.970;2023-04-03T11:06:07;2.07;;;1.87;;
2408;SDS011;8463;48.094;7.970;2023-04-03T11:08:46;1.40;;;1.30;;
2408;SDS011;8463;48.094;7.970;2023-04-03T11:11:31;1.53;;;1.43;;
2408;SDS011;8463;48.094;7.970;2023-04-03T11:14:14;2.27;;;2.07;;
2408;SDS011;8463;48.094;7.970;2023-04-03T11:16:52;1.83;;;1.60;;
2408;SDS011;8463;48.094;7.970;2023-04-03T11:19:39;2.83;;;1.60;;
2408;SDS011;8463;48.094;7.970;2023-04-03T11:22:22;1.60;;;1.50;;
2408;SDS011;8463;48.094;7.970;2023-04-03T11:24:57;2.30;;;2.10;;
2408;SDS011;8463;48.094;7.970;2023-04-03T11:27:41;1.57;;;1.40;;
2408;SDS011;8463;48.094;7.970;2023-04-03T11:30:52;2.07;;;1.67;;
2408;SDS011;8463;48.094;7.970;2023-04-03T11:35:47;2.07;;;1.97;;
2408;SDS011;8463;48.094;7.970;2023-04-03T11:38:19;2.63;;;2.10;;
2408;SDS011;8463;48.094;7.970;2023-04-03T11:40:51;3.40;;;2.60;;
2408;SDS011;8463;48.094;7.970;2023-04-03T11:43:25;2.30;;;2.10;;
2408;SDS011;8463;48.094;7.970;2023-04-03T11:45:58;2.60;;;1.97;;
2408;SDS011;8463;48.094;7.970;2023-04-03T11:50:53;2.17;;;1.97;;
2408;SDS011;8463;48.094;7.970;2023-04-03T11:55:53;2.87;;;2.37;;
2408;SDS011;8463;48.094;7.970;2023-04-03T11:58:22;1.90;;;1.50;;
2408;SDS011;8463;48.094;7.970;2023-04-03T12:00:56;2.47;;;1.83;;
2408;SDS011;8463;48.094;7.970;2023-04-03T12:16:06;1.80;;;1.70;;
2408;SDS011;8463;48.094;7.970;2023-04-03T12:21:21;2.13;;;1.93;;
2408;SDS011;8463;48.094;7.970;2023-04-03T12:40:30;1.87;;;1.77;;
2408;SDS011;8463;48.094;7.970;2023-04-03T12:43:08;2.20;;;1.90;;
2408;SDS011;8463;48.094;7.970;2023-04-03T12:48:53;1.93;;;1.60;;
2408;SDS011;8463;48.094;7.970;2023-04-03T12:53:52;2.10;;;1.90;;
2408;SDS011;8463;48.094;7.970;2023-04-03T12:56:28;2.00;;;1.90;;
2408;SDS011;8463;48.094;7.970;2023-04-03T12:59:12;2.53;;;1.60;;
2408;SDS011;8463;48.094;7.970;2023-04-03T13:01:42;1.60;;;1.50;;
2408;SDS011;8463;48.094;7.970;2023-04-03T13:04:09;3.17;;;2.73;;
2408;SDS011;8463;48.094;7.970;2023-04-03T13:06:41;3.87;;;2.60;;
2408;SDS011;8463;48.094;7.970;2023-04-03T13:09:41;3.90;;;2.27;;
2408;SDS011;8463;48.094;7.970;2023-04-03T13:12:09;1.80;;;1.70;;
2408;SDS011;8463;48.094;7.970;2023-04-03T13:14:38;2.10;;;1.90;;
2408;SDS011;8463;48.094;7.970;2023-04-03T13:17:10;1.97;;;1.63;;
2408;SDS011;8463;48.094;7.970;2023-04-03T13:19:38;3.20;;;2.90;;
2408;SDS011;8463;48.094;7.970;2023-04-03T13:22:52;2.20;;;1.67;;
2408;SDS011;8463;48.094;7.970;2023-04-03T13:24:59;2.67;;;2.30;;
2408;SDS011;8463;48.094;7.970;2023-04-03T13:27:30;3.40;;;1.80;;
2408;SDS011;8463;48.094;7.970;2023-04-03T13:29:57;1.87;;;1.77;;
2408;SDS011;8463;48.094;7.970;2023-04-03T13:32:26;1.73;;;1.63;;
2408;SDS011;8463;48.094;7.970;2023-04-03T13:34:53;1.70;;;1.60;;
2408;SDS011;8463;48.094;7.970;2023-04-03T13:37:23;1.93;;;1.83;;
2408;SDS011;8463;48.094;7.970;2023-04-03T13:39:58;1.60;;;1.50;;
2408;SDS011;8463;48.094;7.970;2023-04-03T13:42:27;2.80;;;1.60;;
2408;SDS011;8463;48.094;7.970;2023-04-03T13:47:49;3.20;;;2.10;;
2408;SDS011;8463;48.094;7.970;2023-04-03T13:52:54;1.67;;;1.50;;
2408;SDS011;8463;48.094;7.970;2023-04-03T13:58:18;2.53;;;1.90;;
2408;SDS011;8463;48.094;7.970;2023-04-03T14:00:55;2.13;;;1.90;;
2408;SDS011;8463;48.094;7.970;2023-04-03T14:03:32;1.73;;;1.50;;
2408;SDS011;8463;48.094;7.970;2023-04-03T14:06:05;3.07;;;2.20;;
2408;SDS011;8463;48.094;7.970;2023-04-03T14:08:33;2.20;;;2.00;;
2408;SDS011;8463;48.094;7.970;2023-04-03T14:10:59;3.50;;;1.57;;
2408;SDS011;8463;48.094;7.970;2023-04-03T14:13:26;2.00;;;1.80;;
2408;SDS011;8463;48.094;7.970;2023-04-03T14:15:51;2.90;;;1.63;;
2408;SDS011;8463;48.094;7.970;2023-04-03T14:18:18;1.97;;;1.77;;
2408;SDS011;8463;48.094;7.970;2023-04-03T14:20:45;2.33;;;1.90;;
2408;SDS011;8463;48.094;7.970;2023-04-03T14:23:12;2.07;;;1.87;;
2408;SDS011;8463;48.094;7.970;2023-04-03T14:25:37;2.10;;;1.90;;
2408;SDS011;8463;48.094;7.970;2023-04-03T14:28:12;3.20;;;2.20;;
2408;SDS011;8463;48.094;7.970;2023-04-03T14:30:43;4.00;;;1.77;;
2408;SDS011;8463;48.094;7.970;2023-04-03T14:33:13;6.43;;;2.70;;
2408;SDS011;8463;48.094;7.970;2023-04-03T14:35:41;2.03;;;1.83;;
2408;SDS011;8463;48.094;7.970;2023-04-03T14:40:53;2.03;;;1.90;;
2408;SDS011;8463;48.094;7.970;2023-04-03T14:43:19;1.83;;;1.73;;
2408;SDS011;8463;48.094;7.970;2023-04-03T14:45:46;2.70;;;1.63;;
2408;SDS011;8463;48.094;7.970;2023-04-03T14:48:17;2.70;;;1.70;;
2408;SDS011;8463;48.094;7.970;2023-04-03T14:50:45;2.70;;;2.00;;
2408;SDS011;8463;48.094;7.970;2023-04-03T14:53:12;2.97;;;1.60;;
2408;SDS011;8463;48.094;7.970;2023-04-03T14:55:40;1.80;;;1.70;;
2408;SDS011;8463;48.094;7.970;2023-04-03T14:58:09;2.30;;;1.80;;
2408;SDS011;8463;48.094;7.970;2023-04-03T15:00:41;3.40;;;2.17;;
2408;SDS011;8463;48.094;7.970;2023-04-03T15:03:15;2.07;;;1.87;;
2408;SDS011;8463;48.094;7.970;2023-04-03T15:05:46;2.70;;;1.80;;
2408;SDS011;8463;48.094;7.970;2023-04-03T15:08:22;3.17;;;1.77;;
2408;SDS011;8463;48.094;7.970;2023-04-03T15:10:49;2.17;;;1.87;;
2408;SDS011;8463;48.094;7.970;2023-04-03T15:13:17;2.17;;;2.07;;
2408;SDS011;8463;48.094;7.970;2023-04-03T15:15:44;3.50;;;2.37;;
2408;SDS011;8463;48.094;7.970;2023-04-03T15:18:12;2.57;;;2.00;;
2408;SDS011;8463;48.094;7.970;2023-04-03T15:20:42;3.10;;;2.13;;
2408;SDS011;8463;48.094;7.970;2023-04-03T15:23:08;3.70;;;2.30;;
2408;SDS011;8463;48.094;7.970;2023-04-03T15:25:35;2.80;;;2.50;;
2408;SDS011;8463;48.094;7.970;2023-04-03T15:28:01;2.40;;;2.00;;
2408;SDS011;8463;48.094;7.970;2023-04-03T15:30:27;3.80;;;2.60;;
2408;SDS011;8463;48.094;7.970;2023-04-03T15:32:52;2.87;;;2.57;;
2408;SDS011;8463;48.094;7.970;2023-04-03T15:35:18;3.60;;;2.40;;
2408;SDS011;8463;48.094;7.970;2023-04-03T15:37:46;2.50;;;2.30;;
2408;SDS011;8463;48.094;7.970;2023-04-03T15:40:13;2.27;;;1.83;;
2408;SDS011;8463;48.094;7.970;2023-04-03T15:42:39;3.50;;;2.10;;
2408;SDS011;8463;48.094;7.970;2023-04-03T15:45:05;4.73;;;1.60;;
2408;SDS011;8463;48.094;7.970;2023-04-03T15:47:32;2.00;;;1.90;;
2408;SDS011;8463;48.094;7.970;2023-04-03T15:49:58;2.03;;;1.90;;
2408;SDS011;8463;48.094;7.970;2023-04-03T15:52:23;3.70;;;2.43;;
2408;SDS011;8463;48.094;7.970;2023-04-03T15:54:49;4.00;;;2.07;;
2408;SDS011;8463;48.094;7.970;2023-04-03T15:57:15;5.00;;;2.43;;
2408;SDS011;8463;48.094;7.970;2023-04-03T15:59:41;2.13;;;1.93;;
2408;SDS011;8463;48.094;7.970;2023-04-03T16:02:07;3.47;;;2.30;;
2408;SDS011;8463;48.094;7.970;2023-04-03T16:04:37;2.50;;;1.87;;
2408;SDS011;8463;48.094;7.970;2023-04-03T16:07:03;2.87;;;2.13;;
2408;SDS011;8463;48.094;7.970;2023-04-03T16:09:32;1.70;;;1.60;;
2408;SDS011;8463;48.094;7.970;2023-04-03T16:11:58;3.20;;;1.33;;
2408;SDS011;8463;48.094;7.970;2023-04-03T16:14:25;2.97;;;2.47;;
2408;SDS011;8463;48.094;7.970;2023-04-03T16:16:52;4.13;;;2.80;;
2408;SDS011;8463;48.094;7.970;2023-04-03T16:19:18;2.17;;;1.70;;
2408;SDS011;8463;48.094;7.970;2023-04-03T16:21:45;1.63;;;1.50;;
2408;SDS011;8463;48.094;7.970;2023-04-03T16:24:11;3.10;;;2.10;;
2408;SDS011;8463;48.094;7.970;2023-04-03T16:26:37;1.17;;;1.00;;
2408;SDS011;8463;48.094;7.970;2023-04-03T16:29:03;3.37;;;2.30;;
2408;SDS011;8463;48.094;7.970;2023-04-03T16:31:28;2.27;;;2.07;;
2408;SDS011;8463;48.094;7.970;2023-04-03T16:33:56;2.63;;;2.23;;
2408;SDS011;8463;48.094;7.970;2023-04-03T16:36:23;2.43;;;2.23;;
2408;SDS011;8463;48.094;7.970;2023-04-03T16:38:50;3.73;;;2.03;;
2408;SDS011;8463;48.094;7.970;2023-04-03T16:41:15;2.23;;;2.07;;
2408;SDS011;8463;48.094;7.970;2023-04-03T16:43:41;1.73;;;1.47;;
2408;SDS011;8463;48.094;7.970;2023-04-03T16:46:07;1.90;;;1.50;;
2408;SDS011;8463;48.094;7.970;2023-04-03T16:48:32;2.33;;;1.70;;
2408;SDS011;8463;48.094;7.970;2023-04-03T16:50:58;1.37;;;1.27;;
2408;SDS011;8463;48.094;7.970;2023-04-03T16:53:25;1.77;;;1.43;;
2408;SDS011;8463;48.094;7.970;2023-04-03T16:55:52;3.70;;;1.63;;
2408;SDS011;8463;48.094;7.970;2023-04-03T16:58:18;1.60;;;1.47;;
2408;SDS011;8463;48.094;7.970;2023-04-03T17:00:43;2.40;;;1.60;;
2408;SDS011;8463;48.094;7.970;2023-04-03T17:03:09;1.70;;;1.60;;
2408;SDS011;8463;48.094;7.970;2023-04-03T17:05:35;4.60;;;1.87;;
2408;SDS011;8463;48.094;7.970;2023-04-03T17:08:01;2.80;;;1.87;;
2408;SDS011;8463;48.094;7.970;2023-04-03T17:10:27;3.73;;;2.07;;
2408;SDS011;8463;48.094;7.970;2023-04-03T17:12:52;3.17;;;1.80;;
2408;SDS011;8463;48.094;7.970;2023-04-03T17:15:18;1.70;;;1.60;;
2408;SDS011;8463;48.094;7.970;2023-04-03T17:17:45;4.13;;;3.27;;
2408;SDS011;8463;48.094;7.970;2023-04-03T17:20:11;4.90;;;3.50;;
2408;SDS011;8463;48.094;7.970;2023-04-03T17:22:37;3.93;;;1.90;;
2408;SDS011;8463;48.094;7.970;2023-04-03T17:25:03;1.90;;;1.80;;
2408;SDS011;8463;48.094;7.970;2023-04-03T17:27:29;2.57;;;2.17;;
2408;SDS011;8463;48.094;7.970;2023-04-03T17:29:55;3.23;;;2.10;;
2408;SDS011;8463;48.094;7.970;2023-04-03T17:32:21;2.27;;;1.97;;
2408;SDS011;8463;48.094;7.970;2023-04-03T17:34:50;2.63;;;1.70;;
2408;SDS011;8463;48.094;7.970;2023-04-03T17:37:15;2.20;;;2.00;;
2408;SDS011;8463;48.094;7.970;2023-04-03T17:39:41;2.13;;;1.93;;